sensor_id;sensor_type;location;lat;lon;timestamp;temperature;humidity
13742;DHT22;8461;52.356;10.704;2023-02-11T00:00:51;3.80;99.90
13742;DHT22;8461;52.356;10.704;2023-02-11T00:03:17;3.90;99.90
13742;DHT22;8461;52.356;10.704;2023-02-11T00:05:42;4.10;99.90
13742;DHT22;8461;52.356;10.704;2023-02-11T00:08:08;4.20;99.90
13742;DHT22;8461;52.356;10.704;2023-02-11T00:10:33;4.30;99.90
13742;DHT22;8461;52.356;10.704;2023-02-11T00:12:59;4.50;99.90
13742;DHT22;8461;52.356;10.704;2023-02-11T00:15:24;4.60;99.90
13742;DHT22;8461;52.356;10.704;2023-02-11T00:17:50;4.60;99.90
13742;DHT22;8461;52.356;10.704;2023-02-11T00:20:16;4.70;99.90
13742;DHT22;8461;52.356;10.704;2023-02-11T00:22:41;4.80;99.90
13742;DHT22;8461;52.356;10.704;2023-02-11T00:25:07;4.90;99.90
13742;DHT22;8461;52.356;10.704;2023-02-11T00:27:32;4.90;99.90
13742;DHT22;8461;52.356;10.704;2023-02-11T00:29:58;5.00;99.90
13742;DHT22;8461;52.356;10.704;2023-02-11T00:32:25;5.00;99.90
13742;DHT22;8461;52.356;10.704;2023-02-11T00:34:51;5.00;99.90
13742;DHT22;8461;52.356;10.704;2023-02-11T00:37:17;5.10;99.90
13742;DHT22;8461;52.356;10.704;2023-02-11T00:39:43;5.10;99.90
13742;DHT22;8461;52.356;10.704;2023-02-11T00:42:13;5.10;99.90
13742;DHT22;8461;52.356;10.704;2023-02-11T00:44:39;5.10;99.90
13742;DHT22;8461;52.356;10.704;2023-02-11T00:47:05;5.20;99.90
13742;DHT22;8461;52.356;10.704;2023-02-11T00:49:30;5.20;99.90
13742;DHT22;8461;52.356;10.704;2023-02-11T00:51:56;5.20;99.90
13742;DHT22;8461;52.356;10.704;2023-02-11T00:54:21;5.20;99.90
13742;DHT22;8461;52.356;10.704;2023-02-11T00:56:47;5.20;99.90
13742;DHT22;8461;52.356;10.704;2023-02-11T00:59:12;5.20;99.90
13742;DHT22;8461;52.356;10.704;2023-02-11T01:01:38;5.20;99.90
13742;DHT22;8461;52.356;10.704;2023-02-11T01:04:04;5.20;99.90
13742;DHT22;8461;52.356;10.704;2023-02-11T01:06:29;5.20;99.90
13742;DHT22;8461;52.356;10.704;2023-02-11T01:08:55;5.20;99.90
13742;DHT22;8461;52.356;10.704;2023-02-11T01:11:21;5.20;99.90
13742;DHT22;8461;52.356;10.704;2023-02-11T01:13:47;5.30;99.90
13742;DHT22;8461;52.356;10.704;2023-02-11T01:16:13;5.20;99.90
13742;DHT22;8461;52.356;10.704;2023-02-11T01:18:40;5.20;99.90
13742;DHT22;8461;52.356;10.704;2023-02-11T01:21:07;5.30;99.90
13742;DHT22;8461;52.356;10.704;2023-02-11T01:23:32;5.30;99.90
13742;DHT22;8461;52.356;10.704;2023-02-11T01:25:58;5.20;99.90
13742;DHT22;8461;52.356;10.704;2023-02-11T01:28:26;5.20;99.90
13742;DHT22;8461;52.356;10.704;2023-02-11T01:30:53;5.20;99.90
13742;DHT22;8461;52.356;10.704;2023-02-11T01:33:19;5.20;99.90
13742;DHT22;8461;52.356;10.704;2023-02-11T01:35:45;5.30;99.90
13742;DHT22;8461;52.356;10.704;2023-02-11T01:38:16;5.30;99.90
13742;DHT22;8461;52.356;10.704;2023-02-11T01:44:34;5.20;99.90
13742;DHT22;8461;52.356;10.704;2023-02-11T01:47:00;5.20;99.90
13742;DHT22;8461;52.356;10.704;2023-02-11T01:49:35;5.20;99.90
13742;DHT22;8461;52.356;10.704;2023-02-11T01:52:06;5.30;99.90
13742;DHT22;8461;52.356;10.704;2023-02-11T01:54:37;5.30;99.90
13742;DHT22;8461;52.356;10.704;2023-02-11T01:57:25;5.30;99.90
13742;DHT22;8461;52.356;10.704;2023-02-11T02:05:41;5.30;99.90
13742;DHT22;8461;52.356;10.704;2023-02-11T02:10:51;5.30;99.90
13742;DHT22;8461;52.356;10.704;2023-02-11T02:13:24;5.30;99.90
13742;DHT22;8461;52.356;10.704;2023-02-11T02:15:52;5.30;99.90
13742;DHT22;8461;52.356;10.704;2023-02-11T02:27:01;5.40;99.90
13742;DHT22;8461;52.356;10.704;2023-02-11T02:35:09;5.30;99.90
13742;DHT22;8461;52.356;10.704;2023-02-11T02:37:46;5.30;99.90
13742;DHT22;8461;52.356;10.704;2023-02-11T02:40:18;5.30;99.90
13742;DHT22;8461;52.356;10.704;2023-02-11T02:42:45;5.30;99.90
13742;DHT22;8461;52.356;10.704;2023-02-11T02:45:12;5.30;99.90
13742;DHT22;8461;52.356;10.704;2023-02-11T02:47:38;5.30;99.90
13742;DHT22;8461;52.356;10.704;2023-02-11T02:50:04;5.30;99.90
13742;DHT22;8461;52.356;10.704;2023-02-11T02:52:35;5.30;99.90
13742;DHT22;8461;52.356;10.704;2023-02-11T02:55:11;5.30;99.90
13742;DHT22;8461;52.356;10.704;2023-02-11T02:57:52;5.30;99.90
13742;DHT22;8461;52.356;10.704;2023-02-11T03:00:39;5.30;99.90
13742;DHT22;8461;52.356;10.704;2023-02-11T03:06:03;5.30;99.90
13742;DHT22;8461;52.356;10.704;2023-02-11T03:09:05;5.30;99.90
13742;DHT22;8461;52.356;10.704;2023-02-11T03:11:32;5.30;99.90
13742;DHT22;8461;52.356;10.704;2023-02-11T03:14:00;5.30;99.90
13742;DHT22;8461;52.356;10.704;2023-02-11T03:16:27;5.30;99.90
13742;DHT22;8461;52.356;10.704;2023-02-11T03:19:03;5.30;99.90
13742;DHT22;8461;52.356;10.704;2023-02-11T03:21:31;5.30;99.90
13742;DHT22;8461;52.356;10.704;2023-02-11T03:24:02;5.30;99.90
13742;DHT22;8461;52.356;10.704;2023-02-11T03:26:51;5.30;99.90
13742;DHT22;8461;52.356;10.704;2023-02-11T03:32:29;5.30;99.90
13742;DHT22;8461;52.356;10.704;2023-02-11T03:35:19;5.30;99.90
13742;DHT22;8461;52.356;10.704;2023-02-11T03:37:51;5.30;99.90
13742;DHT22;8461;52.356;10.704;2023-02-11T03:40:28;5.40;99.90
13742;DHT22;8461;52.356;10.704;2023-02-11T03:45:24;5.40;99.90
13742;DHT22;8461;52.356;10.704;2023-02-11T03:50:51;5.40;99.90
13742;DHT22;8461;52.356;10.704;2023-02-11T03:53:19;5.40;99.90
13742;DHT22;8461;52.356;10.704;2023-02-11T03:55:47;5.40;99.90
13742;DHT22;8461;52.356;10.704;2023-02-11T03:58:13;5.40;99.90
13742;DHT22;8461;52.356;10.704;2023-02-11T04:00:40;5.40;99.90
13742;DHT22;8461;52.356;10.704;2023-02-11T04:03:07;5.40;99.90
13742;DHT22;8461;52.356;10.704;2023-02-11T04:05:33;5.50;99.90
13742;DHT22;8461;52.356;10.704;2023-02-11T04:07:59;5.40;99.90
13742;DHT22;8461;52.356;10.704;2023-02-11T04:10:24;5.40;99.90
13742;DHT22;8461;52.356;10.704;2023-02-11T04:12:50;5.40;99.90
13742;DHT22;8461;52.356;10.704;2023-02-11T04:15:16;5.40;99.90
13742;DHT22;8461;52.356;10.704;2023-02-11T04:17:42;5.40;99.90
13742;DHT22;8461;52.356;10.704;2023-02-11T04:20:08;5.40;99.90
13742;DHT22;8461;52.356;10.704;2023-02-11T04:22:34;5.50;99.90
13742;DHT22;8461;52.356;10.704;2023-02-11T04:24:59;5.50;99.90
13742;DHT22;8461;52.356;10.704;2023-02-11T04:27:25;5.40;99.90
13742;DHT22;8461;52.356;10.704;2023-02-11T04:29:50;5.50;99.90
13742;DHT22;8461;52.356;10.704;2023-02-11T04:32:16;5.40;99.90
13742;DHT22;8461;52.356;10.704;2023-02-11T04:34:41;5.40;99.90
13742;DHT22;8461;52.356;10.704;2023-02-11T04:37:07;5.40;99.90
13742;DHT22;8461;52.356;10.704;2023-02-11T04:39:33;5.40;99.90
13742;DHT22;8461;52.356;10.704;2023-02-11T04:41:58;5.40;99.90
13742;DHT22;8461;52.356;10.704;2023-02-11T04:44:24;5.40;99.90
13742;DHT22;8461;52.356;10.704;2023-02-11T04:46:50;5.50;99.90
13742;DHT22;8461;52.356;10.704;2023-02-11T04:49:16;5.50;99.90
13742;DHT22;8461;52.356;10.704;2023-02-11T04:51:42;5.40;99.90
13742;DHT22;8461;52.356;10.704;2023-02-11T04:54:09;5.40;99.90
13742;DHT22;8461;52.356;10.704;2023-02-11T04:56:35;5.40;99.90
13742;DHT22;8461;52.356;10.704;2023-02-11T04:59:01;5.40;99.90
13742;DHT22;8461;52.356;10.704;2023-02-11T05:01:26;5.50;99.90
13742;DHT22;8461;52.356;10.704;2023-02-11T05:03:52;5.50;99.90
13742;DHT22;8461;52.356;10.704;2023-02-11T05:06:17;5.50;99.90
13742;DHT22;8461;52.356;10.704;2023-02-11T05:08:43;5.50;99.90
13742;DHT22;8461;52.356;10.704;2023-02-11T05:11:18;5.50;99.90
13742;DHT22;8461;52.356;10.704;2023-02-11T05:13:44;5.50;99.90
13742;DHT22;8461;52.356;10.704;2023-02-11T05:16:09;5.40;99.90
13742;DHT22;8461;52.356;10.704;2023-02-11T05:18:39;5.40;99.90
13742;DHT22;8461;52.356;10.704;2023-02-11T05:21:10;5.40;99.90
13742;DHT22;8461;52.356;10.704;2023-02-11T05:23:36;5.40;99.90
13742;DHT22;8461;52.356;10.704;2023-02-11T05:26:02;5.40;99.90
13742;DHT22;8461;52.356;10.704;2023-02-11T05:28:28;5.40;99.90
13742;DHT22;8461;52.356;10.704;2023-02-11T05:30:54;5.40;99.90
13742;DHT22;8461;52.356;10.704;2023-02-11T05:33:19;5.40;99.90
13742;DHT22;8461;52.356;10.704;2023-02-11T05:35:45;5.40;99.90
13742;DHT22;8461;52.356;10.704;2023-02-11T05:38:10;5.50;99.90
13742;DHT22;8461;52.356;10.704;2023-02-11T05:40:36;5.40;99.90
13742;DHT22;8461;52.356;10.704;2023-02-11T05:43:01;5.50;99.90
13742;DHT22;8461;52.356;10.704;2023-02-11T05:45:27;5.50;99.90
13742;DHT22;8461;52.356;10.704;2023-02-11T05:47:53;5.50;99.90
13742;DHT22;8461;52.356;10.704;2023-02-11T05:50:18;5.40;99.90
13742;DHT22;8461;52.356;10.704;2023-02-11T05:52:44;5.50;99.90
13742;DHT22;8461;52.356;10.704;2023-02-11T05:55:10;5.50;99.90
13742;DHT22;8461;52.356;10.704;2023-02-11T05:57:35;5.50;99.90
13742;DHT22;8461;52.356;10.704;2023-02-11T06:00:01;5.50;99.90
13742;DHT22;8461;52.356;10.704;2023-02-11T06:02:28;5.50;99.90
13742;DHT22;8461;52.356;10.704;2023-02-11T06:04:53;5.50;99.90
13742;DHT22;8461;52.356;10.704;2023-02-11T06:07:19;5.50;99.90
13742;DHT22;8461;52.356;10.704;2023-02-11T06:09:44;5.50;99.90
13742;DHT22;8461;52.356;10.704;2023-02-11T06:12:10;5.50;99.90
13742;DHT22;8461;52.356;10.704;2023-02-11T06:14:36;5.50;99.90
13742;DHT22;8461;52.356;10.704;2023-02-11T06:17:01;5.50;99.90
13742;DHT22;8461;52.356;10.704;2023-02-11T06:19:27;5.50;99.90
13742;DHT22;8461;52.356;10.704;2023-02-11T06:21:54;5.50;99.90
13742;DHT22;8461;52.356;10.704;2023-02-11T06:24:19;5.50;99.90
13742;DHT22;8461;52.356;10.704;2023-02-11T06:26:45;5.50;99.90
13742;DHT22;8461;52.356;10.704;2023-02-11T06:29:10;5.50;99.90
13742;DHT22;8461;52.356;10.704;2023-02-11T06:31:37;5.50;99.90
13742;DHT22;8461;52.356;10.704;2023-02-11T06:34:03;5.50;99.90
13742;DHT22;8461;52.356;10.704;2023-02-11T06:36:29;5.60;99.90
13742;DHT22;8461;52.356;10.704;2023-02-11T06:38:55;5.70;99.90
13742;DHT22;8461;52.356;10.704;2023-02-11T06:41:21;5.60;99.90
13742;DHT22;8461;52.356;10.704;2023-02-11T06:43:47;5.50;99.90
13742;DHT22;8461;52.356;10.704;2023-02-11T06:46:13;5.50;99.90
13742;DHT22;8461;52.356;10.704;2023-02-11T06:48:39;5.50;99.90
13742;DHT22;8461;52.356;10.704;2023-02-11T06:51:07;5.50;99.90
13742;DHT22;8461;52.356;10.704;2023-02-11T06:53:39;5.50;99.90
13742;DHT22;8461;52.356;10.704;2023-02-11T06:56:08;5.50;99.90
13742;DHT22;8461;52.356;10.704;2023-02-11T06:58:34;5.50;99.90
13742;DHT22;8461;52.356;10.704;2023-02-11T07:01:03;5.60;99.90
13742;DHT22;8461;52.356;10.704;2023-02-11T07:03:31;5.60;99.90
13742;DHT22;8461;52.356;10.704;2023-02-11T07:05:59;5.60;99.90
13742;DHT22;8461;52.356;10.704;2023-02-11T07:08:24;5.60;99.90
13742;DHT22;8461;52.356;10.704;2023-02-11T07:10:50;5.60;99.90
13742;DHT22;8461;52.356;10.704;2023-02-11T07:13:15;5.70;99.90
13742;DHT22;8461;52.356;10.704;2023-02-11T07:15:41;5.70;99.90
13742;DHT22;8461;52.356;10.704;2023-02-11T07:18:06;5.70;99.90
13742;DHT22;8461;52.356;10.704;2023-02-11T07:20:32;5.80;99.90
13742;DHT22;8461;52.356;10.704;2023-02-11T07:22:58;5.80;99.90
13742;DHT22;8461;52.356;10.704;2023-02-11T07:25:24;5.80;99.90
13742;DHT22;8461;52.356;10.704;2023-02-11T07:27:50;5.80;99.90
13742;DHT22;8461;52.356;10.704;2023-02-11T07:30:15;5.80;99.90
13742;DHT22;8461;52.356;10.704;2023-02-11T07:32:41;5.80;99.90
13742;DHT22;8461;52.356;10.704;2023-02-11T07:35:06;5.80;99.90
13742;DHT22;8461;52.356;10.704;2023-02-11T07:37:33;5.80;99.90
13742;DHT22;8461;52.356;10.704;2023-02-11T07:39:59;5.80;99.90
13742;DHT22;8461;52.356;10.704;2023-02-11T07:42:24;5.90;99.90
13742;DHT22;8461;52.356;10.704;2023-02-11T07:44:50;5.90;99.90
13742;DHT22;8461;52.356;10.704;2023-02-11T07:47:15;5.90;99.90
13742;DHT22;8461;52.356;10.704;2023-02-11T07:49:41;6.00;99.90
13742;DHT22;8461;52.356;10.704;2023-02-11T07:52:06;6.00;99.90
13742;DHT22;8461;52.356;10.704;2023-02-11T07:54:32;6.00;99.90
13742;DHT22;8461;52.356;10.704;2023-02-11T07:56:57;6.00;99.90
13742;DHT22;8461;52.356;10.704;2023-02-11T07:59:23;6.00;99.90
13742;DHT22;8461;52.356;10.704;2023-02-11T08:01:49;6.00;99.90
13742;DHT22;8461;52.356;10.704;2023-02-11T08:04:16;6.00;99.90
13742;DHT22;8461;52.356;10.704;2023-02-11T08:06:42;6.00;99.90
13742;DHT22;8461;52.356;10.704;2023-02-11T08:09:09;6.00;99.90
13742;DHT22;8461;52.356;10.704;2023-02-11T08:11:35;6.00;99.90
13742;DHT22;8461;52.356;10.704;2023-02-11T08:14:01;6.10;99.90
13742;DHT22;8461;52.356;10.704;2023-02-11T08:16:29;6.00;99.90
13742;DHT22;8461;52.356;10.704;2023-02-11T08:18:57;6.00;99.90
13742;DHT22;8461;52.356;10.704;2023-02-11T08:21:23;6.10;99.90
13742;DHT22;8461;52.356;10.704;2023-02-11T08:23:49;6.10;99.90
13742;DHT22;8461;52.356;10.704;2023-02-11T08:26:18;6.10;99.90
13742;DHT22;8461;52.356;10.704;2023-02-11T08:28:45;6.10;99.90
13742;DHT22;8461;52.356;10.704;2023-02-11T08:31:17;6.10;99.90
13742;DHT22;8461;52.356;10.704;2023-02-11T08:33:43;6.10;99.90
13742;DHT22;8461;52.356;10.704;2023-02-11T08:36:10;6.10;99.90
13742;DHT22;8461;52.356;10.704;2023-02-11T08:38:36;6.10;99.90
13742;DHT22;8461;52.356;10.704;2023-02-11T08:41:03;6.10;99.90
13742;DHT22;8461;52.356;10.704;2023-02-11T08:43:29;6.10;99.90
13742;DHT22;8461;52.356;10.704;2023-02-11T08:45:54;6.10;99.90
13742;DHT22;8461;52.356;10.704;2023-02-11T08:48:20;6.10;99.90
13742;DHT22;8461;52.356;10.704;2023-02-11T08:50:45;6.10;99.90
13742;DHT22;8461;52.356;10.704;2023-02-11T08:53:11;6.20;99.90
13742;DHT22;8461;52.356;10.704;2023-02-11T08:55:36;6.20;99.90
13742;DHT22;8461;52.356;10.704;2023-02-11T08:58:02;6.20;99.90
13742;DHT22;8461;52.356;10.704;2023-02-11T09:00:28;6.20;99.90
13742;DHT22;8461;52.356;10.704;2023-02-11T09:02:53;6.30;99.90
13742;DHT22;8461;52.356;10.704;2023-02-11T09:05:19;6.30;99.90
13742;DHT22;8461;52.356;10.704;2023-02-11T09:07:46;6.30;99.90
13742;DHT22;8461;52.356;10.704;2023-02-11T09:10:11;6.30;99.90
13742;DHT22;8461;52.356;10.704;2023-02-11T09:12:37;6.30;99.90
13742;DHT22;8461;52.356;10.704;2023-02-11T09:15:02;6.30;99.90
13742;DHT22;8461;52.356;10.704;2023-02-11T09:17:28;6.40;99.90
13742;DHT22;8461;52.356;10.704;2023-02-11T09:19:53;6.30;99.90
13742;DHT22;8461;52.356;10.704;2023-02-11T09:22:19;6.30;99.90
13742;DHT22;8461;52.356;10.704;2023-02-11T09:24:44;6.30;99.90
13742;DHT22;8461;52.356;10.704;2023-02-11T09:27:10;6.30;99.90
13742;DHT22;8461;52.356;10.704;2023-02-11T09:29:35;6.40;99.90
13742;DHT22;8461;52.356;10.704;2023-02-11T09:32:01;6.40;99.90
13742;DHT22;8461;52.356;10.704;2023-02-11T09:34:26;6.40;99.90
13742;DHT22;8461;52.356;10.704;2023-02-11T09:36:52;6.30;99.90
13742;DHT22;8461;52.356;10.704;2023-02-11T09:39:18;6.30;99.90
13742;DHT22;8461;52.356;10.704;2023-02-11T09:42:19;6.30;99.90
13742;DHT22;8461;52.356;10.704;2023-02-11T09:44:50;6.30;99.90
13742;DHT22;8461;52.356;10.704;2023-02-11T09:47:28;6.30;99.90
13742;DHT22;8461;52.356;10.704;2023-02-11T09:50:03;6.30;99.90
13742;DHT22;8461;52.356;10.704;2023-02-11T09:52:44;6.30;99.90
13742;DHT22;8461;52.356;10.704;2023-02-11T09:55:28;6.30;99.90
13742;DHT22;8461;52.356;10.704;2023-02-11T09:57:55;6.30;99.90
13742;DHT22;8461;52.356;10.704;2023-02-11T10:00:27;6.30;99.90
13742;DHT22;8461;52.356;10.704;2023-02-11T10:05:58;6.30;99.90
13742;DHT22;8461;52.356;10.704;2023-02-11T10:13:46;6.30;99.90
13742;DHT22;8461;52.356;10.704;2023-02-11T10:16:42;6.20;99.90
13742;DHT22;8461;52.356;10.704;2023-02-11T10:19:15;6.30;99.90
13742;DHT22;8461;52.356;10.704;2023-02-11T10:21:57;6.30;99.90
13742;DHT22;8461;52.356;10.704;2023-02-11T10:24:24;6.30;99.90
13742;DHT22;8461;52.356;10.704;2023-02-11T10:26:50;6.30;99.90
13742;DHT22;8461;52.356;10.704;2023-02-11T10:29:39;6.30;99.90
13742;DHT22;8461;52.356;10.704;2023-02-11T10:32:25;6.30;99.90
13742;DHT22;8461;52.356;10.704;2023-02-11T10:34:55;6.30;99.90
13742;DHT22;8461;52.356;10.704;2023-02-11T10:37:22;6.30;99.90
13742;DHT22;8461;52.356;10.704;2023-02-11T10:39:48;6.30;99.90
13742;DHT22;8461;52.356;10.704;2023-02-11T10:42:13;6.30;99.90
13742;DHT22;8461;52.356;10.704;2023-02-11T10:44:58;6.30;99.90
13742;DHT22;8461;52.356;10.704;2023-02-11T10:47:28;6.30;99.90
13742;DHT22;8461;52.356;10.704;2023-02-11T10:49:57;6.30;99.90
13742;DHT22;8461;52.356;10.704;2023-02-11T10:52:28;6.40;99.90
13742;DHT22;8461;52.356;10.704;2023-02-11T10:57:37;6.40;99.90
13742;DHT22;8461;52.356;10.704;2023-02-11T11:02:56;6.40;99.90
13742;DHT22;8461;52.356;10.704;2023-02-11T11:05:55;6.40;99.90
13742;DHT22;8461;52.356;10.704;2023-02-11T11:11:14;6.50;99.90
13742;DHT22;8461;52.356;10.704;2023-02-11T11:13:53;6.50;99.90
13742;DHT22;8461;52.356;10.704;2023-02-11T11:16:23;6.60;99.90
13742;DHT22;8461;52.356;10.704;2023-02-11T11:18:51;6.60;99.90
13742;DHT22;8461;52.356;10.704;2023-02-11T11:21:42;6.60;99.90
13742;DHT22;8461;52.356;10.704;2023-02-11T11:24:21;6.50;99.90
13742;DHT22;8461;52.356;10.704;2023-02-11T11:26:53;6.60;99.90
13742;DHT22;8461;52.356;10.704;2023-02-11T11:32:01;6.60;99.90
13742;DHT22;8461;52.356;10.704;2023-02-11T11:34:41;6.60;99.90
13742;DHT22;8461;52.356;10.704;2023-02-11T11:37:31;6.70;99.90
13742;DHT22;8461;52.356;10.704;2023-02-11T11:40:19;6.70;99.90
13742;DHT22;8461;52.356;10.704;2023-02-11T11:42:46;6.70;99.90
13742;DHT22;8461;52.356;10.704;2023-02-11T11:45:26;6.70;99.90
13742;DHT22;8461;52.356;10.704;2023-02-11T11:50:55;6.70;99.90
13742;DHT22;8461;52.356;10.704;2023-02-11T11:53:35;6.70;99.90
13742;DHT22;8461;52.356;10.704;2023-02-11T11:56:25;6.80;99.90
13742;DHT22;8461;52.356;10.704;2023-02-11T11:58:51;6.80;99.90
13742;DHT22;8461;52.356;10.704;2023-02-11T12:01:49;6.80;99.90
13742;DHT22;8461;52.356;10.704;2023-02-11T12:04:35;6.90;99.90
13742;DHT22;8461;52.356;10.704;2023-02-11T12:07:18;7.00;99.90
13742;DHT22;8461;52.356;10.704;2023-02-11T12:10:36;7.00;99.90
13742;DHT22;8461;52.356;10.704;2023-02-11T12:13:20;7.00;99.90
13742;DHT22;8461;52.356;10.704;2023-02-11T12:24:08;7.20;99.90
13742;DHT22;8461;52.356;10.704;2023-02-11T12:26:41;7.20;99.90
13742;DHT22;8461;52.356;10.704;2023-02-11T12:32:03;7.20;99.90
13742;DHT22;8461;52.356;10.704;2023-02-11T12:37:41;7.30;99.90
13742;DHT22;8461;52.356;10.704;2023-02-11T12:43:21;7.30;99.90
13742;DHT22;8461;52.356;10.704;2023-02-11T12:48:50;7.40;99.90
13742;DHT22;8461;52.356;10.704;2023-02-11T12:51:38;7.40;99.90
13742;DHT22;8461;52.356;10.704;2023-02-11T12:57:02;7.50;99.90
13742;DHT22;8461;52.356;10.704;2023-02-11T13:02:40;7.50;99.90
13742;DHT22;8461;52.356;10.704;2023-02-11T13:05:23;7.50;99.90
13742;DHT22;8461;52.356;10.704;2023-02-11T13:07:53;7.50;99.90
13742;DHT22;8461;52.356;10.704;2023-02-11T13:10:36;7.50;99.90
13742;DHT22;8461;52.356;10.704;2023-02-11T13:13:17;7.50;99.90
13742;DHT22;8461;52.356;10.704;2023-02-11T13:15:48;7.60;99.90
13742;DHT22;8461;52.356;10.704;2023-02-11T13:18:23;7.50;99.90
13742;DHT22;8461;52.356;10.704;2023-02-11T13:24:01;7.50;99.90
13742;DHT22;8461;52.356;10.704;2023-02-11T13:26:55;7.40;99.90
13742;DHT22;8461;52.356;10.704;2023-02-11T13:32:17;7.50;99.90
13742;DHT22;8461;52.356;10.704;2023-02-11T13:37:18;7.60;99.90
13742;DHT22;8461;52.356;10.704;2023-02-11T13:40:00;7.60;99.90
13742;DHT22;8461;52.356;10.704;2023-02-11T13:42:26;7.60;99.90
13742;DHT22;8461;52.356;10.704;2023-02-11T13:44:53;7.60;99.90
13742;DHT22;8461;52.356;10.704;2023-02-11T13:47:29;7.60;99.90
13742;DHT22;8461;52.356;10.704;2023-02-11T13:49:56;7.60;99.90
13742;DHT22;8461;52.356;10.704;2023-02-11T13:52:28;7.60;99.90
13742;DHT22;8461;52.356;10.704;2023-02-11T13:55:06;7.60;99.90
13742;DHT22;8461;52.356;10.704;2023-02-11T13:57:35;7.60;99.90
13742;DHT22;8461;52.356;10.704;2023-02-11T14:02:35;7.60;99.90
13742;DHT22;8461;52.356;10.704;2023-02-11T14:16:19;7.50;99.90
13742;DHT22;8461;52.356;10.704;2023-02-11T14:23:46;7.50;99.90
13742;DHT22;8461;52.356;10.704;2023-02-11T14:26:31;7.50;99.90
13742;DHT22;8461;52.356;10.704;2023-02-11T14:30:05;7.50;99.90
13742;DHT22;8461;52.356;10.704;2023-02-11T14:38:26;7.50;99.90
13742;DHT22;8461;52.356;10.704;2023-02-11T14:43:46;7.50;99.90
13742;DHT22;8461;52.356;10.704;2023-02-11T14:46:17;7.50;99.90
13742;DHT22;8461;52.356;10.704;2023-02-11T14:48:48;7.50;99.90
13742;DHT22;8461;52.356;10.704;2023-02-11T14:51:22;7.50;99.90
13742;DHT22;8461;52.356;10.704;2023-02-11T14:53:52;7.50;99.90
13742;DHT22;8461;52.356;10.704;2023-02-11T14:56:26;7.50;99.90
13742;DHT22;8461;52.356;10.704;2023-02-11T14:58:56;7.50;99.90
13742;DHT22;8461;52.356;10.704;2023-02-11T15:01:31;7.50;99.90
13742;DHT22;8461;52.356;10.704;2023-02-11T15:03:58;7.50;99.90
13742;DHT22;8461;52.356;10.704;2023-02-11T15:06:38;7.50;99.90
13742;DHT22;8461;52.356;10.704;2023-02-11T15:09:21;7.50;99.90
13742;DHT22;8461;52.356;10.704;2023-02-11T15:11:51;7.50;99.90
13742;DHT22;8461;52.356;10.704;2023-02-11T15:14:25;7.50;99.90
13742;DHT22;8461;52.356;10.704;2023-02-11T15:16:53;7.50;99.90
13742;DHT22;8461;52.356;10.704;2023-02-11T15:19:25;7.40;99.90
13742;DHT22;8461;52.356;10.704;2023-02-11T15:21:53;7.40;99.90
13742;DHT22;8461;52.356;10.704;2023-02-11T15:24:31;7.40;99.90
13742;DHT22;8461;52.356;10.704;2023-02-11T15:27:01;7.40;99.90
13742;DHT22;8461;52.356;10.704;2023-02-11T15:29:38;7.50;99.90
13742;DHT22;8461;52.356;10.704;2023-02-11T15:32:15;7.50;99.90
13742;DHT22;8461;52.356;10.704;2023-02-11T15:34:42;7.50;99.90
13742;DHT22;8461;52.356;10.704;2023-02-11T15:37:22;7.50;99.90
13742;DHT22;8461;52.356;10.704;2023-02-11T15:39:48;7.50;99.90
13742;DHT22;8461;52.356;10.704;2023-02-11T15:42:23;7.50;99.90
13742;DHT22;8461;52.356;10.704;2023-02-11T15:47:40;7.50;99.90
13742;DHT22;8461;52.356;10.704;2023-02-11T15:50:17;7.50;99.90
13742;DHT22;8461;52.356;10.704;2023-02-11T15:52:45;7.50;99.90
13742;DHT22;8461;52.356;10.704;2023-02-11T15:55:13;7.50;99.90
13742;DHT22;8461;52.356;10.704;2023-02-11T15:57:47;7.50;99.90
13742;DHT22;8461;52.356;10.704;2023-02-11T16:00:18;7.40;99.90
13742;DHT22;8461;52.356;10.704;2023-02-11T16:02:46;7.50;99.90
13742;DHT22;8461;52.356;10.704;2023-02-11T16:05:35;7.50;99.90
13742;DHT22;8461;52.356;10.704;2023-02-11T16:11:02;7.50;99.90
13742;DHT22;8461;52.356;10.704;2023-02-11T16:13:43;7.50;99.90
13742;DHT22;8461;52.356;10.704;2023-02-11T16:16:19;7.40;99.90
13742;DHT22;8461;52.356;10.704;2023-02-11T16:18:54;7.40;99.90
13742;DHT22;8461;52.356;10.704;2023-02-11T16:21:34;7.40;99.90
13742;DHT22;8461;52.356;10.704;2023-02-11T16:24:04;7.50;99.90
13742;DHT22;8461;52.356;10.704;2023-02-11T16:26:39;7.50;99.90
13742;DHT22;8461;52.356;10.704;2023-02-11T16:29:12;7.50;99.90
13742;DHT22;8461;52.356;10.704;2023-02-11T16:31:44;7.50;99.90
13742;DHT22;8461;52.356;10.704;2023-02-11T16:34:22;7.50;99.90
13742;DHT22;8461;52.356;10.704;2023-02-11T16:36:49;7.50;99.90
13742;DHT22;8461;52.356;10.704;2023-02-11T16:39:16;7.50;99.90
13742;DHT22;8461;52.356;10.704;2023-02-11T16:41:43;7.50;99.90
13742;DHT22;8461;52.356;10.704;2023-02-11T16:44:08;7.60;99.90
13742;DHT22;8461;52.356;10.704;2023-02-11T16:46:35;7.50;99.90
13742;DHT22;8461;52.356;10.704;2023-02-11T16:49:10;7.60;99.90
13742;DHT22;8461;52.356;10.704;2023-02-11T16:51:40;7.50;99.90
13742;DHT22;8461;52.356;10.704;2023-02-11T16:54:06;7.60;99.90
13742;DHT22;8461;52.356;10.704;2023-02-11T16:56:33;7.50;99.90
13742;DHT22;8461;52.356;10.704;2023-02-11T16:58:58;7.50;99.90
13742;DHT22;8461;52.356;10.704;2023-02-11T17:01:25;7.50;99.90
13742;DHT22;8461;52.356;10.704;2023-02-11T17:03:50;7.40;99.90
13742;DHT22;8461;52.356;10.704;2023-02-11T17:06:16;7.40;99.90
13742;DHT22;8461;52.356;10.704;2023-02-11T17:08:42;7.40;99.90
13742;DHT22;8461;52.356;10.704;2023-02-11T17:11:07;7.40;99.90
13742;DHT22;8461;52.356;10.704;2023-02-11T17:13:33;7.30;99.90
13742;DHT22;8461;52.356;10.704;2023-02-11T17:15:58;7.30;99.90
13742;DHT22;8461;52.356;10.704;2023-02-11T17:18:24;7.30;99.90
13742;DHT22;8461;52.356;10.704;2023-02-11T17:20:51;7.30;99.90
13742;DHT22;8461;52.356;10.704;2023-02-11T17:23:16;7.30;99.90
13742;DHT22;8461;52.356;10.704;2023-02-11T17:25:42;7.30;99.90
13742;DHT22;8461;52.356;10.704;2023-02-11T17:28:08;7.30;99.90
13742;DHT22;8461;52.356;10.704;2023-02-11T17:30:34;7.30;99.90
13742;DHT22;8461;52.356;10.704;2023-02-11T17:33:00;7.30;99.90
13742;DHT22;8461;52.356;10.704;2023-02-11T17:35:26;7.30;99.90
13742;DHT22;8461;52.356;10.704;2023-02-11T17:37:51;7.30;99.90
13742;DHT22;8461;52.356;10.704;2023-02-11T17:40:18;7.30;99.90
13742;DHT22;8461;52.356;10.704;2023-02-11T17:42:43;7.30;99.90
13742;DHT22;8461;52.356;10.704;2023-02-11T17:45:09;7.30;99.90
13742;DHT22;8461;52.356;10.704;2023-02-11T17:47:35;7.30;99.90
13742;DHT22;8461;52.356;10.704;2023-02-11T17:50:01;7.30;99.90
13742;DHT22;8461;52.356;10.704;2023-02-11T17:52:27;7.30;99.90
13742;DHT22;8461;52.356;10.704;2023-02-11T17:54:53;7.30;99.90
13742;DHT22;8461;52.356;10.704;2023-02-11T17:57:19;7.20;99.90
13742;DHT22;8461;52.356;10.704;2023-02-11T17:59:45;7.20;99.90
13742;DHT22;8461;52.356;10.704;2023-02-11T18:02:11;7.20;99.90
13742;DHT22;8461;52.356;10.704;2023-02-11T18:04:37;7.20;99.90
13742;DHT22;8461;52.356;10.704;2023-02-11T18:07:03;7.20;99.90
13742;DHT22;8461;52.356;10.704;2023-02-11T18:09:29;7.20;99.90